»·PEaware :: ASA1379 KPDX-KSFO

ASA1379 :: KPDX-KSFO

FLIGHT INFORMATION

Flight Status: Arrived
Operator:
Alaska Airlines
More flights by this operator :: More flights under this callsign
Pilot: Chandler S. (807)
Aircraft: BOEING 737-800
(B738)
More flights by this aircraft type
Origin: KPDX Portland Intl
United States
Destination: KSFO San Francisco Intl
United States
More flights between these airports :: More routes between these airports
Route: +MINNE5 EASON Q1 ENVIE MLBEC BDEGA2
File this flight plan on PilotEdge
Remarks:
Altitude:
(Current/Filed)
33,000ft
Speed:
(Current/Filed)
300kts
Departed: 08-Jan-18 06:58 PM
Arrived: 08-Jan-18 08:33 PM
Distance/Time
Traveled:
478nm/1:35
Distance/Time
To Go:
Arrived

Flight Plot

Page will automatically refresh every two minutes.

Flight plan parsing failed; only flown route is shown


Map Options




Map Legend


Flown Route
Filed Route
Departure Airport
Arrival Airport
Navaid (VOR, NDB)
Fix

Horizontal Profiles

Position Reports

Time Latitude Longitude Heading Altitude Ground
Speed
08-Jan-18 18:36 45.587792 -122.594865 10 37ft 0kts
08-Jan-18 18:37 45.587792 -122.594865 10 37ft 0kts
08-Jan-18 18:38 45.587792 -122.594865 10 37ft 0kts
08-Jan-18 18:39 45.587792 -122.594865 10 37ft 0kts
08-Jan-18 18:40 45.587792 -122.594865 10 37ft 0kts
08-Jan-18 18:41 45.587792 -122.594865 10 37ft 0kts
08-Jan-18 18:42 45.587792 -122.594865 10 37ft 0kts
08-Jan-18 18:43 45.587792 -122.594865 10 37ft 0kts
08-Jan-18 18:44 45.587792 -122.594865 10 37ft 0kts
08-Jan-18 18:45 45.587792 -122.594865 10 37ft 0kts
08-Jan-18 18:46 45.587792 -122.594865 10 37ft 0kts
08-Jan-18 18:47 45.587792 -122.594865 10 37ft 0kts
08-Jan-18 18:48 45.587792 -122.594865 10 37ft 0kts
08-Jan-18 18:49 45.587792 -122.594865 10 37ft 0kts
08-Jan-18 18:50 45.587792 -122.594865 10 37ft 0kts
08-Jan-18 18:51 45.587792 -122.594865 10 37ft 0kts
08-Jan-18 18:52 45.587792 -122.594865 10 37ft 0kts
08-Jan-18 18:53 45.587792 -122.594865 10 37ft 0kts
08-Jan-18 18:54 45.587792 -122.594865 10 37ft 0kts
08-Jan-18 18:55 45.587792 -122.594865 10 37ft 0kts
08-Jan-18 18:56 45.587792 -122.594865 10 37ft 0kts
08-Jan-18 18:57 45.587413 -122.594969 11 37ft 2kts
08-Jan-18 18:58 45.586922 -122.595000 305 37ft 1kts
08-Jan-18 18:59 45.586898 -122.594944 298 37ft 0kts
08-Jan-18 19:00 45.586961 -122.595109 299 37ft 3kts
08-Jan-18 19:01 45.587860 -122.597306 301 37ft 14kts
08-Jan-18 19:02 45.591088 -122.602297 45 37ft 16kts
08-Jan-18 19:03 45.593767 -122.598468 46 37ft 10kts
08-Jan-18 19:04 45.594238 -122.594119 118 37ft 61kts
08-Jan-18 19:05 45.571647 -122.529459 96 2998ft 230kts
08-Jan-18 19:06 45.563224 -122.444556 108 7413ft 223kts
08-Jan-18 19:07 45.542299 -122.350260 132 10801ft 276kts
08-Jan-18 19:08 45.474260 -122.316041 180 14962ft 286kts
08-Jan-18 19:09 45.413222 -122.383572 239 18676ft 308kts
08-Jan-18 19:10 45.374110 -122.495986 242 22174ft 327kts
08-Jan-18 19:11 45.336550 -122.611490 243 25636ft 330kts
08-Jan-18 19:12 45.298528 -122.729280 240 28057ft 341kts
08-Jan-18 19:13 45.216358 -122.799984 197 28804ft 385kts
08-Jan-18 19:14 45.114551 -122.860964 209 28795ft 401kts
08-Jan-18 19:15 45.015729 -122.935066 209 28779ft 408kts
08-Jan-18 19:16 44.914963 -123.011793 209 30220ft 413kts
08-Jan-18 19:17 44.818695 -123.085187 209 32763ft 398kts
08-Jan-18 19:18 44.721147 -123.159718 209 32782ft 406kts
08-Jan-18 19:19 44.620365 -123.236797 210 32779ft 418kts
08-Jan-18 19:20 44.527654 -123.307750 209 32777ft 417kts
08-Jan-18 19:21 44.412162 -123.326056 182 32776ft 431kts
08-Jan-18 19:22 44.293520 -123.321064 183 32770ft 430kts
08-Jan-18 19:23 44.174345 -123.316466 183 32758ft 429kts
08-Jan-18 19:24 44.055524 -123.312010 183 32753ft 430kts
08-Jan-18 19:25 43.935987 -123.307456 183 32752ft 429kts
08-Jan-18 19:26 43.817727 -123.302986 183 32763ft 430kts
08-Jan-18 19:27 43.718650 -123.299212 183 32758ft 430kts
08-Jan-18 19:28 43.579982 -123.293958 183 32753ft 430kts
08-Jan-18 19:29 43.480409 -123.290174 183 32750ft 430kts
08-Jan-18 19:30 43.341270 -123.284903 183 32749ft 430kts
08-Jan-18 19:31 43.252862 -123.281564 183 32747ft 430kts
08-Jan-18 19:32 43.114759 -123.276335 183 32745ft 430kts
08-Jan-18 19:33 43.015334 -123.272555 183 32744ft 430kts
08-Jan-18 19:34 42.878315 -123.267381 181 32756ft 429kts
08-Jan-18 19:35 42.779386 -123.263612 182 32755ft 429kts
08-Jan-18 19:36 42.660652 -123.259161 182 32753ft 429kts
08-Jan-18 19:37 42.541656 -123.254615 182 32752ft 429kts
08-Jan-18 19:38 42.424061 -123.250122 182 32730ft 402kts
08-Jan-18 19:39 42.312453 -123.245945 182 32750ft 406kts
08-Jan-18 19:40 42.199637 -123.241665 182 32747ft 406kts
08-Jan-18 19:41 42.087667 -123.237421 182 32746ft 406kts
08-Jan-18 19:42 41.975085 -123.233151 182 32744ft 406kts
08-Jan-18 19:43 41.864460 -123.228956 182 32761ft 406kts
08-Jan-18 19:44 41.751825 -123.224687 182 32775ft 406kts
08-Jan-18 19:45 41.639324 -123.220420 182 32762ft 406kts
08-Jan-18 19:46 41.526671 -123.216149 182 32752ft 406kts
08-Jan-18 19:47 41.414113 -123.211884 182 32748ft 406kts
08-Jan-18 19:48 41.301367 -123.205636 179 32751ft 408kts
08-Jan-18 19:49 41.188590 -123.193807 179 32752ft 408kts
08-Jan-18 19:50 41.075970 -123.182374 179 32759ft 406kts
08-Jan-18 19:51 40.964382 -123.171089 178 32768ft 404kts
08-Jan-18 19:52 40.855117 -123.159966 178 32790ft 404kts
08-Jan-18 19:53 40.743286 -123.148597 178 32793ft 403kts
08-Jan-18 19:54 40.631917 -123.137341 178 32798ft 403kts
08-Jan-18 19:55 40.520486 -123.126032 178 32802ft 403kts
08-Jan-18 19:56 40.408871 -123.114686 178 32805ft 403kts
08-Jan-18 19:57 40.297066 -123.103342 178 32804ft 404kts
08-Jan-18 19:58 40.185707 -123.092063 178 32810ft 404kts
08-Jan-18 19:59 40.073944 -123.080718 178 32790ft 404kts
08-Jan-18 20:00 39.962588 -123.069394 178 32771ft 404kts
08-Jan-18 20:01 39.852101 -123.058164 178 32780ft 404kts
08-Jan-18 20:02 39.743738 -123.086388 195 32768ft 400kts
08-Jan-18 20:03 39.636805 -123.124019 195 32763ft 400kts
08-Jan-18 20:04 39.530837 -123.138545 170 32788ft 407kts
08-Jan-18 20:05 39.421190 -123.107949 171 32761ft 407kts
08-Jan-18 20:06 39.311148 -123.077005 171 32760ft 407kts
08-Jan-18 20:07 39.200515 -123.045500 171 32757ft 408kts
08-Jan-18 20:08 39.090858 -123.014159 171 32756ft 408kts
08-Jan-18 20:09 38.980554 -122.983126 171 32755ft 407kts
08-Jan-18 20:10 38.872371 -122.952772 170 31202ft 419kts
08-Jan-18 20:11 38.764257 -122.922467 170 28808ft 384kts
08-Jan-18 20:12 38.665030 -122.894851 171 26426ft 358kts
08-Jan-18 20:13 38.571837 -122.869012 171 24224ft 342kts
08-Jan-18 20:14 38.483067 -122.843284 170 23752ft 325kts
08-Jan-18 20:15 38.396025 -122.817750 170 23751ft 324kts
08-Jan-18 20:16 38.308894 -122.794184 183 21726ft 315kts
08-Jan-18 20:17 38.225068 -122.815596 190 19207ft 306kts
08-Jan-18 20:18 38.143846 -122.828815 161 16660ft 308kts
08-Jan-18 20:19 38.067531 -122.779861 155 16024ft 312kts
08-Jan-18 20:20 37.990142 -122.729857 155 16021ft 313kts
08-Jan-18 20:21 37.913470 -122.680511 155 14564ft 306kts
08-Jan-18 20:22 37.846259 -122.616440 143 13029ft 302kts
08-Jan-18 20:23 37.781784 -122.548451 143 12668ft 309kts
08-Jan-18 20:24 37.718841 -122.481792 142 10983ft 276kts
08-Jan-18 20:25 37.664247 -122.423762 142 10996ft 260kts
08-Jan-18 20:26 37.609239 -122.366391 149 10990ft 259kts
08-Jan-18 20:27 37.547752 -122.323948 153 11015ft 259kts
08-Jan-18 20:28 37.483021 -122.333147 203 10896ft 268kts
08-Jan-18 20:29 37.430415 -122.301368 105 8810ft 280kts
08-Jan-18 20:30 37.419828 -122.210879 102 7150ft 246kts
08-Jan-18 20:31 37.409221 -122.126678 102 7187ft 240kts
08-Jan-18 20:32 37.412422 -122.057765 54 6324ft 249kts
08-Jan-18 20:33 37.474258 -122.062574 323 4209ft 255kts
08-Jan-18 20:34 37.514357 -122.127634 298 3249ft 215kts
08-Jan-18 20:35 37.539333 -122.187024 299 3207ft 189kts
08-Jan-18 20:36 37.565768 -122.249126 299 2025ft 197kts
08-Jan-18 20:37 37.588345 -122.303604 299 1246ft 164kts
08-Jan-18 20:38 37.609172 -122.352520 300 172ft 152kts
08-Jan-18 20:39 37.618946 -122.378036 269 21ft 9kts
08-Jan-18 20:40 37.618627 -122.379193 238 21ft 15kts
08-Jan-18 20:41 37.616340 -122.381877 350 21ft 4kts
08-Jan-18 20:42 37.616739 -122.381717 21 21ft 0kts
08-Jan-18 20:43 37.616739 -122.381717 21 21ft 0kts
08-Jan-18 20:44 37.616739 -122.381717 21 21ft 0kts
08-Jan-18 20:45 37.616739 -122.381717 21 21ft 0kts
08-Jan-18 20:46 37.616739 -122.381717 21 21ft 0kts

Navigation Log

Ident Type
Flight plan parsing failed, navigation log unavailable